Main page
METAR-TAF:

METAR-TAF

Airports :

Jam Airport

Bandar Kangan, Iran

latitude: 27-49-14N, longitude: 52-21-08E, elevation: 662 m

Current weather observation

The report was made 45 minutes ago, at 10:00 UTC
Wind 14 kt from the North
Temperature 24°C
Humidity 29%
Pressure 1017 hPa
Visibility 10 km or more
no clouds below 1500 m and no cumulonimbus

METAR: OIBJ 311000Z 35014KT CAVOK 24/05 Q1017

Time: 15:15 (10:45 UTC)


TAF: missing

Weather observations and forecasts of more than 4000 airports (METAR and TAF reports).

The available stations are represented by yellow and red dots on the map.

Hover mouse over dot to see the name of the station.

Then click to see weather observations and forecasts.

To change the map : click on the green buttons with a black cross to zoom in, on the green button with a dash to zoom out, or on the green arrows for adjacent maps.


METAR-TAF: